Archie, Louisiana
Current Conditions -  °F | °C
As of 11:24 PM on Tuesday 21 Oct 2014 (Local Time) from KESF Reporting Station
Scattered Clouds Scattered Clouds  
Wind Chill: 58°   Ceiling: Unl
Heat Index: 58°   Visibility: 7mi
Dew Point: 58°   Wind: 0mph
Humidity: 100%   Direction: NA
Pressure: 30.06"   Gusts: NA
Location:  31.5028°N, 91.9028°W
Report Text: KESF 220424Z AUTO 00000KT 7SM FEW003 SCT044 14/14 A3006 RMK AO2 T01440144
Loading
Personal Weather Stations






























Interactive Weather Map
Tropical Storm Tracking
New forecast layout! Learn more

10-Day Weather Forecast

Advertisements
Track Severe Weather on mobile